createdAt,value
2019-02-27T00:00:04.448Z,-889.13
2019-02-27T00:01:02.801Z,-889.63
2019-02-27T00:02:03.064Z,-888.64
2019-02-27T00:03:03.324Z,-893.17
2019-02-27T00:04:03.563Z,-894.72
2019-02-27T00:05:05.901Z,-897.02
2019-02-27T00:06:04.275Z,-891.71
2019-02-27T00:07:04.391Z,-892.10
2019-02-27T00:08:04.653Z,-887.20
2019-02-27T00:09:04.913Z,-884.93
2019-02-27T00:10:06.186Z,-884.82
2019-02-27T00:11:05.459Z,-885.19
2019-02-27T00:12:05.708Z,-894.50
2019-02-27T00:13:05.979Z,-886.19
2019-02-27T00:14:06.345Z,-887.84
2019-02-27T00:15:06.495Z,-886.82
2019-02-27T00:16:10.795Z,-884.70
2019-02-27T00:17:08.225Z,-886.38
2019-02-27T00:18:07.330Z,-889.24
2019-02-27T00:19:07.523Z,-890.23
2019-02-27T00:20:07.805Z,-886.43
2019-02-27T00:21:10.489Z,-878.14
2019-02-27T00:22:08.384Z,-885.27
2019-02-27T00:23:08.583Z,-895.94
2019-02-27T00:24:08.832Z,-893.20
2019-02-27T00:25:09.078Z,-889.76
2019-02-27T00:26:09.562Z,-891.44
2019-02-27T00:27:09.614Z,-892.91
2019-02-27T00:28:09.896Z,-885.54
2019-02-27T00:29:10.139Z,-887.57
2019-02-27T00:30:10.442Z,-890.29
2019-02-27T00:31:11.435Z,-884.97
2019-02-27T00:32:10.907Z,-891.57
2019-02-27T00:33:11.185Z,-897.84
2019-02-27T00:34:11.426Z,-887.57
2019-02-27T00:35:11.691Z,-889.65
2019-02-27T00:36:12.404Z,-895.27
2019-02-27T00:37:12.204Z,-893.29
2019-02-27T00:38:12.522Z,-892.40
2019-02-27T00:39:12.781Z,-889.93
2019-02-27T00:40:12.996Z,-897.36
2019-02-27T00:41:13.283Z,-894.95
2019-02-27T00:42:13.501Z,-897.44
2019-02-27T00:43:13.797Z,-894.60
2019-02-27T00:44:14.039Z,-895.52
2019-02-27T00:45:14.301Z,-890.10
2019-02-27T00:46:14.606Z,-894.98
2019-02-27T00:47:17.007Z,-892.31
2019-02-27T00:48:15.128Z,-900.95
2019-02-27T00:49:15.371Z,-891.46
2019-02-27T00:50:15.633Z,-893.61
2019-02-27T00:51:15.929Z,-875.60
2019-02-27T00:52:18.079Z,-890.62
2019-02-27T00:53:16.418Z,-894.44
2019-02-27T00:54:16.682Z,-893.10
2019-02-27T00:55:17.058Z,-893.21
2019-02-27T00:56:17.225Z,-898.16
2019-02-27T00:57:20.547Z,-895.94
2019-02-27T00:58:17.717Z,-897.87
2019-02-27T00:59:17.968Z,-895.81
2019-02-27T01:00:18.241Z,-897.05
2019-02-27T01:01:18.535Z,-900.89
2019-02-27T01:02:19.983Z,-896.25
2019-02-27T01:03:19.042Z,-894.32
2019-02-27T01:04:19.247Z,-893.28
2019-02-27T01:05:19.533Z,-891.25
2019-02-27T01:06:19.827Z,-898.00
2019-02-27T01:07:20.708Z,-892.16
2019-02-27T01:08:20.322Z,-897.83
2019-02-27T01:09:20.580Z,-895.71
2019-02-27T01:10:20.817Z,-899.21
2019-02-27T01:11:21.160Z,-898.74
2019-02-27T01:12:22.907Z,-892.88
2019-02-27T01:13:21.612Z,-894.81
2019-02-27T01:14:21.887Z,-890.94
2019-02-27T01:15:22.133Z,-886.66
2019-02-27T01:16:22.444Z,-890.26
2019-02-27T01:17:23.878Z,-887.82
2019-02-27T01:18:22.947Z,-892.13
2019-02-27T01:19:23.263Z,-896.14
2019-02-27T01:20:23.528Z,-894.48
2019-02-27T01:21:23.771Z,-891.39
2019-02-27T01:22:24.011Z,-892.20
2019-02-27T01:23:24.271Z,-896.55
2019-02-27T01:24:24.551Z,-902.11
2019-02-27T01:25:24.803Z,-896.84
2019-02-27T01:26:25.098Z,-897.95
2019-02-27T01:27:25.303Z,-899.48
2019-02-27T01:28:25.693Z,-894.64
2019-02-27T01:29:25.855Z,-896.49
2019-02-27T01:30:26.095Z,-897.90
2019-02-27T01:31:26.369Z,-899.73
2019-02-27T01:32:28.864Z,-901.00
2019-02-27T01:33:26.888Z,-899.02
2019-02-27T01:34:27.166Z,-900.95
2019-02-27T01:35:27.414Z,-905.69
2019-02-27T01:36:27.773Z,-903.26
2019-02-27T01:37:31.298Z,-904.55
2019-02-27T01:38:28.182Z,-897.32
2019-02-27T01:39:28.463Z,-906.80
2019-02-27T01:40:28.710Z,-903.56
2019-02-27T01:41:28.985Z,-905.79
2019-02-27T01:42:32.184Z,-905.29
2019-02-27T01:43:29.475Z,-900.17
2019-02-27T01:44:29.780Z,-902.06
2019-02-27T01:45:29.996Z,-899.26
2019-02-27T01:46:30.282Z,-901.13
2019-02-27T01:47:30.543Z,-889.77
2019-02-27T01:48:30.786Z,-890.44
2019-02-27T01:49:31.058Z,-893.91
2019-02-27T01:50:31.307Z,-892.01
2019-02-27T01:51:31.597Z,-892.24
2019-02-27T01:52:33.940Z,-889.19
2019-02-27T01:53:32.107Z,-895.71
2019-02-27T01:54:32.391Z,-890.40
2019-02-27T01:55:32.622Z,-891.51
2019-02-27T01:56:32.924Z,-892.08
2019-02-27T01:57:34.096Z,-888.89
2019-02-27T01:58:33.419Z,-891.12
2019-02-27T01:59:33.708Z,-887.82
2019-02-27T02:00:33.966Z,-884.12
2019-02-27T02:01:34.317Z,-889.87
2019-02-27T02:02:34.882Z,-895.56
2019-02-27T02:03:34.723Z,-888.70
2019-02-27T02:04:35.003Z,-891.16
2019-02-27T02:05:35.248Z,-892.09
2019-02-27T02:06:35.528Z,-891.50
2019-02-27T02:07:39.871Z,-887.02
2019-02-27T02:08:36.046Z,-885.48
2019-02-27T02:09:36.473Z,-889.23
2019-02-27T02:10:36.577Z,-887.80
2019-02-27T02:11:36.837Z,-886.95
2019-02-27T02:12:39.086Z,-888.95
2019-02-27T02:13:37.387Z,-947.22
2019-02-27T02:14:37.667Z,-946.68
2019-02-27T02:15:37.910Z,-942.97
2019-02-27T02:16:38.179Z,-946.95
2019-02-27T02:17:40.977Z,-951.85
2019-02-27T02:18:38.698Z,-946.88
2019-02-27T02:19:38.982Z,-949.34
2019-02-27T02:20:39.222Z,-953.15
2019-02-27T02:21:39.497Z,-949.96
2019-02-27T02:22:41.280Z,-949.96
2019-02-27T02:23:40.028Z,-953.61
2019-02-27T02:24:40.329Z,-952.44
2019-02-27T02:25:40.623Z,-952.76
2019-02-27T02:26:40.820Z,-947.46
2019-02-27T02:27:41.571Z,-951.20
2019-02-27T02:28:41.323Z,-949.10
2019-02-27T02:29:41.698Z,-946.66
2019-02-27T02:30:41.876Z,-943.28
2019-02-27T02:31:42.586Z,-946.54
2019-02-27T02:32:42.424Z,-948.25
2019-02-27T02:33:42.690Z,-942.59
2019-02-27T02:34:42.961Z,-949.20
2019-02-27T02:35:43.189Z,-950.46
2019-02-27T02:36:43.458Z,-949.16
2019-02-27T02:37:43.730Z,-947.75
2019-02-27T02:38:43.972Z,-948.13
2019-02-27T02:39:44.254Z,-954.78
2019-02-27T02:40:44.479Z,-958.13
2019-02-27T02:41:47.078Z,-952.76
2019-02-27T02:42:45.147Z,-955.80
2019-02-27T02:43:45.275Z,-953.39
2019-02-27T02:44:45.543Z,-950.79
2019-02-27T02:45:45.802Z,-959.01
2019-02-27T02:46:46.335Z,-953.24
2019-02-27T02:47:46.356Z,-959.10
2019-02-27T02:48:46.598Z,-954.10
2019-02-27T02:49:46.874Z,-954.84
2019-02-27T02:50:47.227Z,-952.96
2019-02-27T02:51:47.417Z,-950.82
2019-02-27T02:52:47.652Z,-955.43
2019-02-27T02:53:48.800Z,-956.55
2019-02-27T02:54:48.169Z,-956.71
2019-02-27T02:55:49.253Z,-954.89
2019-02-27T02:56:48.716Z,-957.93
2019-02-27T02:57:48.960Z,-953.13
2019-02-27T02:58:49.273Z,-960.34
2019-02-27T02:59:49.478Z,-948.69
2019-02-27T03:00:49.693Z,-906.46
2019-02-27T03:01:50.173Z,-903.68
2019-02-27T03:02:50.255Z,-902.88
2019-02-27T03:03:50.504Z,-903.76
2019-02-27T03:04:50.783Z,-899.82
2019-02-27T03:05:51.032Z,-903.40
2019-02-27T03:06:51.394Z,-901.01
2019-02-27T03:07:51.550Z,-905.01
2019-02-27T03:08:55.010Z,-903.01
2019-02-27T03:09:52.077Z,-905.24
2019-02-27T03:10:52.536Z,-904.47
2019-02-27T03:11:54.832Z,-909.17
2019-02-27T03:12:52.894Z,-900.34
2019-02-27T03:13:53.092Z,-909.09
2019-02-27T03:14:54.171Z,-907.24
2019-02-27T03:15:53.686Z,-898.33
2019-02-27T03:16:53.912Z,-910.43
2019-02-27T03:17:55.070Z,-903.16
2019-02-27T03:18:54.441Z,-906.49
2019-02-27T03:19:54.699Z,-912.27
2019-02-27T03:20:54.992Z,-910.95
2019-02-27T03:21:55.253Z,-908.40
2019-02-27T03:22:55.561Z,-908.74
2019-02-27T03:23:55.888Z,-907.75
2019-02-27T03:24:56.066Z,-903.10
2019-02-27T03:25:56.337Z,-910.36
2019-02-27T03:26:56.600Z,-906.40
2019-02-27T03:27:56.873Z,-907.16
2019-02-27T03:28:57.130Z,-907.57
2019-02-27T03:29:57.366Z,-906.87
2019-02-27T03:30:57.687Z,-909.27
2019-02-27T03:32:00.163Z,-906.67
2019-02-27T03:32:58.202Z,-910.47
2019-02-27T03:34:05.802Z,-912.75
2019-02-27T03:34:59.691Z,-909.51
2019-02-27T03:35:59.878Z,-908.26
2019-02-27T03:36:59.220Z,-907.66
2019-02-27T03:37:59.507Z,-908.58
2019-02-27T03:39:00.167Z,-909.20
2019-02-27T03:40:00.225Z,-911.23
2019-02-27T03:41:00.279Z,-905.98
2019-02-27T03:42:00.563Z,-907.81
2019-02-27T03:43:00.840Z,-913.12
2019-02-27T03:44:01.087Z,-910.04
2019-02-27T03:45:01.318Z,-911.59
2019-02-27T03:46:03.090Z,-911.69
2019-02-27T03:47:01.831Z,-911.32
2019-02-27T03:48:02.202Z,-908.58
2019-02-27T03:49:03.569Z,-909.17
2019-02-27T03:50:02.627Z,-910.80
2019-02-27T03:51:02.903Z,-908.62
2019-02-27T03:52:03.128Z,-913.54
2019-02-27T03:53:03.428Z,-911.99
2019-02-27T03:54:03.716Z,-911.88
2019-02-27T03:55:03.947Z,-908.00
2019-02-27T03:56:08.698Z,-903.27
2019-02-27T03:57:05.488Z,-906.69
2019-02-27T03:58:04.752Z,-912.53
2019-02-27T03:59:06.065Z,-911.20
2019-02-27T04:00:05.280Z,-909.68
2019-02-27T04:01:05.539Z,-966.05
2019-02-27T04:02:06.159Z,-961.67
2019-02-27T04:03:06.074Z,-959.26
2019-02-27T04:04:06.339Z,-963.21
2019-02-27T04:05:07.375Z,-964.57
2019-02-27T04:06:06.856Z,-962.38
2019-02-27T04:07:07.107Z,-967.85
2019-02-27T04:08:08.304Z,-956.28
2019-02-27T04:09:07.628Z,-955.07
2019-02-27T04:10:08.346Z,-962.01
2019-02-27T04:11:08.174Z,-959.86
2019-02-27T04:12:08.426Z,-907.31
2019-02-27T04:13:08.834Z,-907.14
2019-02-27T04:14:08.945Z,-905.04
2019-02-27T04:15:09.237Z,-909.58
2019-02-27T04:16:09.494Z,-909.62
2019-02-27T04:17:09.741Z,-909.45
2019-02-27T04:18:10.021Z,-901.54
2019-02-27T04:19:10.248Z,-908.44
2019-02-27T04:20:14.602Z,-904.46
2019-02-27T04:21:10.894Z,-906.37
2019-02-27T04:22:11.047Z,-908.04
2019-02-27T04:23:12.434Z,-908.39
2019-02-27T04:24:11.583Z,-910.80
2019-02-27T04:25:11.831Z,-904.76
2019-02-27T04:26:12.132Z,-910.49
2019-02-27T04:27:12.381Z,-903.31
2019-02-27T04:28:12.636Z,-909.17
2019-02-27T04:29:12.952Z,-907.28
2019-02-27T04:30:14.700Z,-908.61
2019-02-27T04:31:13.436Z,-900.70
2019-02-27T04:32:13.682Z,-903.58
2019-02-27T04:33:13.956Z,-907.24
2019-02-27T04:34:14.232Z,-907.57
2019-02-27T04:35:14.479Z,-911.01
2019-02-27T04:36:14.767Z,-915.70
2019-02-27T04:37:15.026Z,-904.92
2019-02-27T04:38:15.340Z,-907.45
2019-02-27T04:39:15.540Z,-913.36
2019-02-27T04:40:15.785Z,-912.77
2019-02-27T04:41:17.807Z,-903.84
2019-02-27T04:42:16.290Z,-910.65
2019-02-27T04:43:16.568Z,-910.87
2019-02-27T04:44:16.845Z,-913.19
2019-02-27T04:45:17.096Z,-914.16
2019-02-27T04:46:18.890Z,-905.32
2019-02-27T04:47:17.616Z,-904.87
2019-02-27T04:48:17.873Z,-907.59
2019-02-27T04:49:18.379Z,-915.26
2019-02-27T04:50:18.396Z,-908.97
2019-02-27T04:51:18.672Z,-911.84
2019-02-27T04:52:18.942Z,-913.87
2019-02-27T04:53:19.160Z,-915.30
2019-02-27T04:54:19.537Z,-913.54
2019-02-27T04:55:19.686Z,-908.43
2019-02-27T04:56:23.105Z,-908.96
2019-02-27T04:57:20.225Z,-890.93
2019-02-27T04:58:20.465Z,-890.19
2019-02-27T04:59:20.771Z,-893.02
2019-02-27T05:00:21.002Z,-901.01
2019-02-27T05:01:21.285Z,-905.36
2019-02-27T05:02:21.606Z,-910.79
2019-02-27T05:03:21.773Z,-904.73
2019-02-27T05:04:22.037Z,-903.08
2019-02-27T05:05:22.300Z,-907.75
2019-02-27T05:06:22.583Z,-909.28
2019-02-27T05:07:22.831Z,-908.60
2019-02-27T05:08:26.925Z,-913.17
2019-02-27T05:09:23.357Z,-895.27
2019-02-27T05:10:23.639Z,-906.02
2019-02-27T05:11:23.869Z,-902.38
2019-02-27T05:12:24.130Z,-908.35
2019-02-27T05:13:24.393Z,-911.56
2019-02-27T05:14:24.789Z,-911.90
2019-02-27T05:15:24.913Z,-911.86
2019-02-27T05:16:25.179Z,-901.44
2019-02-27T05:17:25.454Z,-909.39
2019-02-27T05:18:29.240Z,-901.03
2019-02-27T05:19:26.084Z,-904.54
2019-02-27T05:20:26.204Z,-903.96
2019-02-27T05:21:26.484Z,-903.78
2019-02-27T05:22:27.323Z,-909.81
2019-02-27T05:23:27.006Z,-905.90
2019-02-27T05:24:27.284Z,-902.88
2019-02-27T05:25:27.526Z,-900.29
2019-02-27T05:26:27.845Z,-906.75
2019-02-27T05:27:28.188Z,-898.79
2019-02-27T05:28:28.313Z,-904.00
2019-02-27T05:29:28.595Z,-903.21
2019-02-27T05:30:28.836Z,-904.84
2019-02-27T05:31:29.093Z,-903.32
2019-02-27T05:32:29.385Z,-903.38
2019-02-27T05:33:35.638Z,-907.14
2019-02-27T05:34:30.928Z,-909.41
2019-02-27T05:35:30.261Z,-884.77
2019-02-27T05:36:31.621Z,-878.58
2019-02-27T05:37:30.705Z,-884.57
2019-02-27T05:38:30.963Z,-876.52
2019-02-27T05:39:31.240Z,-889.29
2019-02-27T05:40:31.488Z,-894.93
2019-02-27T05:41:32.911Z,-896.38
2019-02-27T05:42:32.044Z,-898.11
2019-02-27T05:43:32.302Z,-876.59
2019-02-27T05:44:32.530Z,-887.05
2019-02-27T05:45:32.785Z,-895.59
2019-02-27T05:46:33.050Z,-887.69
2019-02-27T05:47:33.359Z,-894.25
2019-02-27T05:48:33.562Z,-897.31
2019-02-27T05:49:33.824Z,-898.35
2019-02-27T05:50:34.274Z,-898.57
2019-02-27T05:51:34.435Z,-904.25
2019-02-27T05:52:34.736Z,-900.42
2019-02-27T05:53:34.893Z,-904.49
2019-02-27T05:54:35.173Z,-904.45
2019-02-27T05:55:39.048Z,-902.61
2019-02-27T05:56:35.680Z,-896.91
2019-02-27T05:57:35.973Z,-897.99
2019-02-27T05:58:36.230Z,-904.59
2019-02-27T05:59:36.495Z,-900.36
2019-02-27T06:00:37.001Z,-896.55
2019-02-27T06:01:38.139Z,-899.60
2019-02-27T06:02:37.270Z,-900.91
2019-02-27T06:03:37.491Z,-905.71
2019-02-27T06:04:37.769Z,-896.79
2019-02-27T06:05:38.010Z,-903.44
2019-02-27T06:06:38.260Z,-903.06
2019-02-27T06:07:38.549Z,-893.02
2019-02-27T06:08:38.869Z,-896.25
2019-02-27T06:09:41.368Z,-901.74
2019-02-27T06:10:39.293Z,-892.27
2019-02-27T06:11:39.575Z,-894.73
2019-02-27T06:12:40.715Z,-894.21
2019-02-27T06:13:40.121Z,-900.19
2019-02-27T06:14:40.388Z,-895.52
2019-02-27T06:15:40.629Z,-894.27
2019-02-27T06:16:41.037Z,-896.23
2019-02-27T06:17:43.354Z,-897.85
2019-02-27T06:18:41.410Z,-899.40
2019-02-27T06:19:41.677Z,-899.99
2019-02-27T06:20:42.547Z,-905.01
2019-02-27T06:21:42.180Z,-899.71
2019-02-27T06:22:42.457Z,-901.43
2019-02-27T06:23:42.696Z,-902.16
2019-02-27T06:24:45.507Z,-897.80
2019-02-27T06:25:43.208Z,-900.50
2019-02-27T06:26:43.473Z,-897.97
2019-02-27T06:27:43.748Z,-895.01
2019-02-27T06:28:43.992Z,-893.55
2019-02-27T06:29:44.260Z,-897.66
2019-02-27T06:30:44.517Z,-898.63
2019-02-27T06:31:44.774Z,-895.17
2019-02-27T06:32:45.111Z,-900.08
2019-02-27T06:33:45.855Z,-894.28
2019-02-27T06:34:45.567Z,-887.93
2019-02-27T06:35:45.820Z,-893.87
2019-02-27T06:36:46.082Z,-890.80
2019-02-27T06:37:50.325Z,-901.65
2019-02-27T06:38:46.625Z,-890.46
2019-02-27T06:39:46.877Z,-872.77
2019-02-27T06:40:47.124Z,-876.74
2019-02-27T06:41:49.712Z,-881.83
2019-02-27T06:42:47.666Z,-886.50
2019-02-27T06:43:47.915Z,-886.92
2019-02-27T06:44:48.151Z,-890.34
2019-02-27T06:45:48.445Z,-895.79
2019-02-27T06:46:51.132Z,-896.44
2019-02-27T06:47:48.987Z,-893.02
2019-02-27T06:48:49.242Z,-886.00
2019-02-27T06:49:51.833Z,-890.39
2019-02-27T06:50:49.770Z,-891.18
2019-02-27T06:51:50.026Z,-886.32
2019-02-27T06:52:50.311Z,-887.61
2019-02-27T06:53:50.562Z,-893.22
2019-02-27T06:54:52.290Z,-888.80
2019-02-27T06:55:51.076Z,-891.49
2019-02-27T06:56:51.337Z,-889.41
2019-02-27T06:57:51.726Z,-886.38
2019-02-27T06:58:55.201Z,-885.53
2019-02-27T06:59:52.061Z,-879.14
2019-02-27T07:00:52.315Z,-887.05
2019-02-27T07:01:52.570Z,-881.19
2019-02-27T07:02:55.268Z,-879.75
2019-02-27T07:03:53.105Z,-878.23
2019-02-27T07:04:53.338Z,-884.69
2019-02-27T07:05:53.873Z,-885.45
2019-02-27T07:06:55.352Z,-880.55
2019-02-27T07:07:54.177Z,-885.02
2019-02-27T07:08:54.435Z,-885.98
2019-02-27T07:09:54.683Z,-878.99
2019-02-27T07:10:57.497Z,-875.60
2019-02-27T07:11:55.200Z,-885.03
2019-02-27T07:12:55.495Z,-884.98
2019-02-27T07:13:55.791Z,-892.27
2019-02-27T07:14:56.040Z,-886.76
2019-02-27T07:15:56.274Z,-883.43
2019-02-27T07:16:57.357Z,-875.60
2019-02-27T07:17:56.830Z,-874.41
2019-02-27T07:18:57.079Z,-875.83
2019-02-27T07:19:57.320Z,-871.41
2019-02-27T07:20:58.315Z,-878.31
2019-02-27T07:21:57.848Z,-884.28
2019-02-27T07:22:58.208Z,-881.44
2019-02-27T07:23:58.656Z,-879.81
2019-02-27T07:24:58.625Z,-887.85
2019-02-27T07:25:58.907Z,-885.29
2019-02-27T07:26:59.137Z,-882.21
2019-02-27T07:27:59.402Z,-884.08
2019-02-27T07:28:59.681Z,-892.91
2019-02-27T07:29:59.946Z,-886.54
2019-02-27T07:31:00.334Z,-884.97
2019-02-27T07:32:00.454Z,-882.12
2019-02-27T07:33:00.711Z,-886.90
2019-02-27T07:34:00.993Z,-889.46
2019-02-27T07:35:01.255Z,-887.74
2019-02-27T07:36:03.569Z,-887.19
2019-02-27T07:37:01.773Z,-890.78
2019-02-27T07:38:02.051Z,-885.66
2019-02-27T07:39:02.339Z,-884.03
2019-02-27T07:40:02.539Z,-891.16
2019-02-27T07:41:02.821Z,-879.98
2019-02-27T07:42:03.063Z,-881.54
2019-02-27T07:43:05.706Z,-883.97
2019-02-27T07:44:03.603Z,-876.87
2019-02-27T07:45:03.841Z,-872.02
2019-02-27T07:46:04.123Z,-877.70
2019-02-27T07:47:04.440Z,-879.98
2019-02-27T07:48:04.618Z,-880.36
2019-02-27T07:49:04.902Z,-884.06
2019-02-27T07:50:06.197Z,-882.63
2019-02-27T07:51:05.420Z,-883.66
2019-02-27T07:52:05.676Z,-883.58
2019-02-27T07:53:05.939Z,-876.00
2019-02-27T07:54:06.245Z,-882.34
2019-02-27T07:55:18.638Z,-879.08
2019-02-27T07:56:07.798Z,-881.48
2019-02-27T07:57:07.000Z,-853.65
2019-02-27T07:58:07.259Z,-860.47
2019-02-27T07:59:07.552Z,-860.82
2019-02-27T08:00:07.770Z,-867.56
2019-02-27T08:01:08.057Z,-866.74
2019-02-27T08:02:08.283Z,-864.23
2019-02-27T08:03:09.436Z,-865.83
2019-02-27T08:04:08.992Z,-873.44
2019-02-27T08:05:09.085Z,-870.24
2019-02-27T08:06:09.590Z,-869.40
2019-02-27T08:07:10.046Z,-867.02
2019-02-27T08:08:09.861Z,-878.01
2019-02-27T08:09:10.143Z,-870.04
2019-02-27T08:10:10.595Z,-873.13
2019-02-27T08:11:13.414Z,-873.72
2019-02-27T08:12:10.988Z,-870.38
2019-02-27T08:13:11.157Z,-867.08
2019-02-27T08:14:12.896Z,-870.57
2019-02-27T08:15:13.455Z,-872.11
2019-02-27T08:16:11.960Z,-866.87
2019-02-27T08:17:17.672Z,-865.03
2019-02-27T08:18:13.525Z,-859.43
2019-02-27T08:19:12.737Z,-866.12
2019-02-27T08:20:13.046Z,-865.28
2019-02-27T08:21:13.279Z,-867.14
2019-02-27T08:22:13.513Z,-867.83
2019-02-27T08:23:15.474Z,-866.73
2019-02-27T08:24:14.445Z,-858.73
2019-02-27T08:25:14.289Z,-865.20
2019-02-27T08:26:14.580Z,-866.51
2019-02-27T08:27:14.823Z,-870.62
2019-02-27T08:28:15.146Z,-858.84
2019-02-27T08:29:15.364Z,-866.25
2019-02-27T08:30:15.600Z,-868.26
2019-02-27T08:31:15.879Z,-869.70
2019-02-27T08:32:16.128Z,-869.51
2019-02-27T08:33:16.395Z,-866.45
2019-02-27T08:34:16.673Z,-868.87
2019-02-27T08:35:16.931Z,-864.24
2019-02-27T08:36:17.208Z,-864.83
2019-02-27T08:37:17.536Z,-864.75
2019-02-27T08:38:17.697Z,-860.82
2019-02-27T08:39:17.991Z,-864.37
2019-02-27T08:40:18.226Z,-867.40
2019-02-27T08:41:18.481Z,-869.16
2019-02-27T08:42:18.738Z,-868.34
2019-02-27T08:43:19.000Z,-875.35
2019-02-27T08:44:19.284Z,-874.03
2019-02-27T08:45:20.490Z,-865.07
2019-02-27T08:46:19.786Z,-867.65
2019-02-27T08:47:20.043Z,-870.24
2019-02-27T08:48:20.304Z,-865.55
2019-02-27T08:49:24.024Z,-866.90
2019-02-27T08:50:20.837Z,-867.30
2019-02-27T08:51:21.095Z,-866.58
2019-02-27T08:52:21.327Z,-870.32
2019-02-27T08:53:25.838Z,-868.16
2019-02-27T08:54:22.875Z,-863.08
2019-02-27T08:55:22.638Z,-869.27
2019-02-27T08:56:22.383Z,-864.62
2019-02-27T08:57:22.635Z,-870.58
2019-02-27T08:58:22.919Z,-868.70
2019-02-27T08:59:23.196Z,-867.14
2019-02-27T09:00:23.520Z,-861.88
2019-02-27T09:01:23.752Z,-863.66
2019-02-27T09:02:24.159Z,-867.15
2019-02-27T09:03:24.214Z,-869.49
2019-02-27T09:04:24.504Z,-868.27
2019-02-27T09:05:24.771Z,-865.41
2019-02-27T09:06:27.340Z,-870.70
2019-02-27T09:07:25.281Z,-866.99
2019-02-27T09:08:25.529Z,-867.41
2019-02-27T09:09:25.823Z,-865.77
2019-02-27T09:10:26.855Z,-868.16
2019-02-27T09:11:26.312Z,-865.39
2019-02-27T09:12:26.593Z,-867.61
2019-02-27T09:13:26.832Z,-861.93
2019-02-27T09:14:27.110Z,-866.57
2019-02-27T09:15:27.341Z,-856.89
2019-02-27T09:16:27.623Z,-865.98
2019-02-27T09:17:27.949Z,-866.35
2019-02-27T09:18:28.253Z,-869.60
2019-02-27T09:19:28.400Z,-865.55
2019-02-27T09:20:28.656Z,-861.01
2019-02-27T09:21:28.950Z,-856.00
2019-02-27T09:22:29.216Z,-861.42
2019-02-27T09:23:29.455Z,-867.38
2019-02-27T09:24:29.733Z,-869.90
2019-02-27T09:25:29.985Z,-870.41
2019-02-27T09:26:30.306Z,-858.78
2019-02-27T09:27:33.024Z,-870.96
2019-02-27T09:28:30.758Z,-871.31
2019-02-27T09:29:31.037Z,-861.88
2019-02-27T09:30:31.266Z,-868.37
2019-02-27T09:31:31.541Z,-863.40
2019-02-27T09:32:31.817Z,-860.80
2019-02-27T09:33:38.581Z,-870.24
2019-02-27T09:34:33.450Z,-885.66
2019-02-27T09:35:34.501Z,-882.03
2019-02-27T09:36:33.850Z,-869.36
2019-02-27T09:37:33.125Z,-886.86
2019-02-27T09:38:33.365Z,-871.74
2019-02-27T09:39:35.038Z,-889.47
2019-02-27T09:40:38.152Z,-884.55
2019-02-27T09:41:34.140Z,-890.83
2019-02-27T09:42:34.445Z,-884.51
2019-02-27T09:43:34.667Z,-881.29
2019-02-27T09:44:36.544Z,-892.93
2019-02-27T09:45:35.370Z,-883.19
2019-02-27T09:46:35.443Z,-899.26
2019-02-27T09:47:35.695Z,-896.23
2019-02-27T09:48:35.951Z,-887.34
2019-02-27T09:49:37.907Z,-884.13
2019-02-27T09:50:36.524Z,-888.38
2019-02-27T09:51:36.792Z,-890.32
2019-02-27T09:52:37.013Z,-887.19
2019-02-27T09:53:37.471Z,-878.83
2019-02-27T09:54:37.538Z,-889.05
2019-02-27T09:55:37.786Z,-886.16
2019-02-27T09:56:38.052Z,-833.81
2019-02-27T09:57:38.316Z,-882.87
2019-02-27T09:58:38.576Z,-893.90
2019-02-27T09:59:39.987Z,-891.70
2019-02-27T10:00:39.110Z,-904.13
2019-02-27T10:01:39.365Z,-901.03
2019-02-27T10:02:39.645Z,-898.26
2019-02-27T10:03:39.883Z,-891.18
2019-02-27T10:04:40.177Z,-890.30
2019-02-27T10:05:40.885Z,-883.17
2019-02-27T10:06:42.749Z,-884.76
2019-02-27T10:07:41.075Z,-879.25
2019-02-27T10:08:41.185Z,-883.09
2019-02-27T10:09:41.458Z,-893.22
2019-02-27T10:10:44.853Z,-901.62
2019-02-27T10:11:42.046Z,-891.02
2019-02-27T10:12:42.372Z,-899.12
2019-02-27T10:13:42.507Z,-880.54
2019-02-27T10:14:42.754Z,-885.18
2019-02-27T10:15:43.096Z,-907.22
2019-02-27T10:16:43.301Z,-884.17
2019-02-27T10:17:43.781Z,-884.28
2019-02-27T10:18:43.816Z,-899.83
2019-02-27T10:19:44.075Z,-901.08
2019-02-27T10:20:44.357Z,-897.33
2019-02-27T10:21:45.288Z,-893.42
2019-02-27T10:22:44.890Z,-888.52
2019-02-27T10:23:45.193Z,-894.47
2019-02-27T10:24:45.375Z,-886.00
2019-02-27T10:25:45.678Z,-886.30
2019-02-27T10:26:45.885Z,-882.51
2019-02-27T10:27:47.271Z,-893.25
2019-02-27T10:28:46.440Z,-889.74
2019-02-27T10:29:47.960Z,-877.51
2019-02-27T10:30:49.858Z,-886.30
2019-02-27T10:31:47.273Z,-897.98
2019-02-27T10:32:47.540Z,-887.04
2019-02-27T10:33:47.714Z,-894.07
2019-02-27T10:34:51.039Z,-889.53
2019-02-27T10:35:49.273Z,-889.29
2019-02-27T10:36:48.633Z,-891.70
2019-02-27T10:37:50.433Z,-890.84
2019-02-27T10:38:49.033Z,-884.04
2019-02-27T10:39:49.325Z,-877.10
2019-02-27T10:40:49.712Z,-882.38
2019-02-27T10:41:50.602Z,-877.11
2019-02-27T10:42:50.273Z,-882.98
2019-02-27T10:43:50.354Z,-887.67
2019-02-27T10:44:50.608Z,-896.34
2019-02-27T10:45:50.913Z,-895.21
2019-02-27T10:46:52.053Z,-890.46
2019-02-27T10:47:51.412Z,-877.91
2019-02-27T10:48:51.777Z,-889.46
2019-02-27T10:49:51.911Z,-879.06
2019-02-27T10:50:52.202Z,-879.95
2019-02-27T10:51:52.431Z,-891.25
2019-02-27T10:52:52.711Z,-894.87
2019-02-27T10:53:52.937Z,-877.42
2019-02-27T10:54:53.219Z,-890.48
2019-02-27T10:55:53.510Z,-900.98
2019-02-27T10:56:56.391Z,-894.65
2019-02-27T10:57:53.994Z,-892.46
2019-02-27T10:58:54.244Z,-882.96
2019-02-27T10:59:54.493Z,-904.77
2019-02-27T11:00:54.802Z,-894.12
2019-02-27T11:01:55.028Z,-897.82
2019-02-27T11:02:55.286Z,-884.94
2019-02-27T11:03:55.547Z,-882.93
2019-02-27T11:04:55.855Z,-882.19
2019-02-27T11:05:56.055Z,-902.50
2019-02-27T11:06:56.315Z,-887.94
2019-02-27T11:07:56.584Z,-894.93
2019-02-27T11:08:56.871Z,-887.34
2019-02-27T11:09:57.118Z,-896.50
2019-02-27T11:10:57.405Z,-877.95
2019-02-27T11:11:57.634Z,-882.36
2019-02-27T11:12:57.944Z,-881.33
2019-02-27T11:13:58.262Z,-879.61
2019-02-27T11:14:58.428Z,-900.18
2019-02-27T11:15:58.690Z,-882.29
2019-02-27T11:17:02.165Z,-879.86
2019-02-27T11:18:04.199Z,-900.25
2019-02-27T11:19:00.497Z,-894.35
2019-02-27T11:19:59.738Z,-892.91
2019-02-27T11:21:00.048Z,-894.63
2019-02-27T11:22:00.389Z,-909.65
2019-02-27T11:23:00.519Z,-902.96
2019-02-27T11:24:01.018Z,-893.97
2019-02-27T11:25:01.029Z,-878.09
2019-02-27T11:26:01.327Z,-900.23
2019-02-27T11:27:03.373Z,-890.68
2019-02-27T11:28:01.828Z,-900.81
2019-02-27T11:29:02.114Z,-892.36
2019-02-27T11:30:03.012Z,-899.98
2019-02-27T11:31:02.608Z,-893.33
2019-02-27T11:32:02.862Z,-908.51
2019-02-27T11:33:03.116Z,-908.30
2019-02-27T11:34:05.124Z,-904.28
2019-02-27T11:35:03.641Z,-904.00
2019-02-27T11:36:05.598Z,-892.20
2019-02-27T11:37:04.295Z,-884.30
2019-02-27T11:38:04.446Z,-892.15
2019-02-27T11:39:04.755Z,-886.97
2019-02-27T11:40:05.375Z,-895.52
2019-02-27T11:41:05.219Z,-883.15
2019-02-27T11:42:05.461Z,-894.19
2019-02-27T11:43:06.993Z,-899.41
2019-02-27T11:44:05.996Z,-904.37
2019-02-27T11:45:06.221Z,-911.13
2019-02-27T11:46:06.570Z,-901.85
2019-02-27T11:47:10.829Z,-892.45
2019-02-27T11:48:07.056Z,-904.67
2019-02-27T11:49:07.318Z,-908.98
2019-02-27T11:50:07.547Z,-905.35
2019-02-27T11:51:07.844Z,-901.41
2019-02-27T11:52:08.083Z,-900.07
2019-02-27T11:53:08.344Z,-913.85
2019-02-27T11:54:09.173Z,-890.16
2019-02-27T11:55:08.986Z,-895.85
2019-02-27T11:56:09.156Z,-885.46
2019-02-27T11:57:09.408Z,-882.85
2019-02-27T11:58:09.673Z,-892.33
2019-02-27T11:59:10.263Z,-894.28
2019-02-27T12:00:10.185Z,-898.89
2019-02-27T12:01:12.040Z,-878.31
2019-02-27T12:02:10.696Z,-882.47
2019-02-27T12:03:11.933Z,-890.14
2019-02-27T12:04:11.239Z,-863.06
2019-02-27T12:05:11.483Z,-861.92
2019-02-27T12:06:11.747Z,-839.89
2019-02-27T12:07:12.246Z,-853.55
2019-02-27T12:08:12.276Z,-847.31